X  Fermer Observations météorologiques des aéroports: METeorological Aerodrome Report.        LFLY LYON
Température
5°C Température
2°C Point de rosée
81% Humidité



Vent
9 KM/H
6 MPH
3 M/S
5 KTS



110°
ESE
Conditions actuelles

Cloudy Nuageux
Pression 1019 (hPa) - 30.08 (inHg)
Visibilité 30 (miles) - 48 (km)
Temps actuel Metar LYON
Code de l'aéroport LFLY

Emplacement: LYON
Distance: 67 (km)

Metar:
METAR LFLY 271700Z AUTO 11005KT 9999 OVC028 05/02 Q1018 TEMPO 3000 RADZ SCT004 BKN010

Temps: 27-01-2021 18:00 CET